createdAt,value
2018-07-23T00:02:18.470Z,76.70
2018-07-23T00:04:49.329Z,76.30
2018-07-23T00:07:20.204Z,77.00
2018-07-23T00:09:50.989Z,76.50
2018-07-23T00:12:21.878Z,77.10
2018-07-23T00:14:52.793Z,77.00
2018-07-23T00:17:23.668Z,77.30
2018-07-23T00:19:54.405Z,77.30
2018-07-23T00:22:25.273Z,77.80
2018-07-23T00:24:56.135Z,78.00
2018-07-23T00:27:27.017Z,78.10
2018-07-23T00:29:58.014Z,78.30
2018-07-23T00:32:28.818Z,78.10
2018-07-23T00:34:59.777Z,78.60
2018-07-23T00:37:30.709Z,78.90
2018-07-23T00:40:01.770Z,79.30
2018-07-23T00:42:32.689Z,80.10
2018-07-23T00:45:03.607Z,81.20
2018-07-23T00:47:34.431Z,81.60
2018-07-23T00:50:05.520Z,81.90
2018-07-23T00:52:36.858Z,82.60
2018-07-23T00:55:07.702Z,83.00
2018-07-23T00:57:38.575Z,82.90
2018-07-23T01:00:09.448Z,83.70
2018-07-23T01:02:40.310Z,83.30
2018-07-23T01:05:11.192Z,83.40
2018-07-23T01:07:42.129Z,83.70
2018-07-23T01:10:13.074Z,83.80
2018-07-23T01:12:43.970Z,84.10
2018-07-23T01:15:14.905Z,84.00
2018-07-23T01:17:45.804Z,83.90
2018-07-23T01:22:47.281Z,83.40
2018-07-23T01:25:18.414Z,83.40
2018-07-23T01:27:49.293Z,83.00
2018-07-23T01:30:20.212Z,82.80
2018-07-23T01:32:51.132Z,82.90
2018-07-23T01:35:22.066Z,83.20
2018-07-23T01:37:53.000Z,83.40
2018-07-23T01:40:24.121Z,83.80
2018-07-23T01:42:55.163Z,84.00
2018-07-23T01:45:26.335Z,84.10
2018-07-23T01:47:57.246Z,84.30
2018-07-23T01:50:28.265Z,84.50
2018-07-23T01:52:59.092Z,84.50
2018-07-23T01:55:29.918Z,84.90
2018-07-23T01:58:00.858Z,85.00
2018-07-23T02:00:31.664Z,84.70
2018-07-23T02:03:02.609Z,84.70
2018-07-23T02:05:33.492Z,84.80
2018-07-23T02:08:04.436Z,84.90
2018-07-23T02:10:35.173Z,84.80
2018-07-23T02:13:06.244Z,84.90
2018-07-23T02:15:37.058Z,85.10
2018-07-23T02:18:08.059Z,86.10
2018-07-23T02:20:38.752Z,85.40
2018-07-23T02:23:09.735Z,85.80
2018-07-23T02:25:40.621Z,85.00
2018-07-23T02:28:11.551Z,85.20
2018-07-23T02:30:42.289Z,85.10
2018-07-23T02:33:13.071Z,84.80
2018-07-23T02:35:43.821Z,85.40
2018-07-23T02:38:14.658Z,85.00
2018-07-23T02:40:45.421Z,85.40
2018-07-23T02:43:16.229Z,85.20
2018-07-23T02:45:46.937Z,85.30
2018-07-23T02:48:17.812Z,85.60
2018-07-23T02:50:48.456Z,85.40
2018-07-23T02:53:19.245Z,85.00
2018-07-23T02:55:50.119Z,85.00
2018-07-23T02:58:20.936Z,85.00
2018-07-23T03:00:52.110Z,84.80
2018-07-23T03:03:22.929Z,84.70
2018-07-23T03:05:53.849Z,85.30
2018-07-23T03:08:24.548Z,85.40
2018-07-23T03:10:55.396Z,85.20
2018-07-23T03:13:26.272Z,85.20
2018-07-23T03:15:57.337Z,85.10
2018-07-23T03:18:28.140Z,85.00
2018-07-23T03:20:58.863Z,85.20
2018-07-23T03:23:29.772Z,85.20
2018-07-23T03:26:00.691Z,85.60
2018-07-23T03:28:31.776Z,85.80
2018-07-23T03:31:02.708Z,86.00
2018-07-23T03:33:33.501Z,85.70
2018-07-23T03:36:04.441Z,85.80
2018-07-23T03:38:35.205Z,85.70
2018-07-23T03:41:05.952Z,85.40
2018-07-23T03:43:36.756Z,85.10
2018-07-23T03:46:07.562Z,85.20
2018-07-23T03:48:38.336Z,84.50
2018-07-23T03:51:09.600Z,84.40
2018-07-23T03:53:40.438Z,84.80
2018-07-23T03:56:11.447Z,85.70
2018-07-23T03:58:42.411Z,86.20
2018-07-23T04:01:13.300Z,85.30
2018-07-23T04:03:44.397Z,84.80
2018-07-23T04:06:15.195Z,84.40
2018-07-23T04:08:46.173Z,84.90
2018-07-23T04:11:17.020Z,85.20
2018-07-23T04:13:47.821Z,85.00
2018-07-23T04:16:18.694Z,85.00
2018-07-23T04:18:49.546Z,84.80
2018-07-23T04:21:20.367Z,85.00
2018-07-23T04:23:51.476Z,84.90
2018-07-23T04:26:22.486Z,85.40
2018-07-23T04:35:21.407Z,84.30
2018-07-23T04:37:52.373Z,84.20
2018-07-23T04:40:23.474Z,83.90
2018-07-23T04:42:54.715Z,83.70
2018-07-23T04:45:25.706Z,83.60
2018-07-23T04:47:56.647Z,83.50
2018-07-23T04:50:27.714Z,82.40
2018-07-23T04:52:58.892Z,81.40
2018-07-23T04:55:29.902Z,80.10
2018-07-23T04:58:01.029Z,79.10
2018-07-23T05:00:32.299Z,77.60
2018-07-23T05:03:03.418Z,77.30
2018-07-23T05:05:34.361Z,77.40
2018-07-23T05:08:05.303Z,77.10
2018-07-23T05:10:36.395Z,75.80
2018-07-23T05:13:07.585Z,75.30
2018-07-23T05:15:38.595Z,74.00
2018-07-23T05:18:09.613Z,73.40
2018-07-23T05:20:40.658Z,72.10
2018-07-23T05:23:11.612Z,71.30
2018-07-23T05:25:42.722Z,71.20
2018-07-23T05:30:44.264Z,69.90
2018-07-23T05:33:15.756Z,70.00
2018-07-23T05:35:46.743Z,67.60
2018-07-23T05:38:17.802Z,67.50
2018-07-23T05:40:48.846Z,66.40
2018-07-23T05:43:19.897Z,65.70
2018-07-23T05:45:50.820Z,66.00
2018-07-23T05:48:21.895Z,65.20
2018-07-23T05:50:52.987Z,64.90
2018-07-23T05:53:24.952Z,64.30
2018-07-23T05:55:55.845Z,65.00
2018-07-23T05:58:26.807Z,64.40
2018-07-23T06:00:57.848Z,63.40
2018-07-23T06:03:29.008Z,63.50
2018-07-23T06:06:00.088Z,63.10
2018-07-23T06:08:31.082Z,62.70
2018-07-23T06:11:02.074Z,63.60
2018-07-23T06:13:33.384Z,64.20
2018-07-23T06:16:04.387Z,62.60
2018-07-23T06:18:35.311Z,61.70
2018-07-23T06:21:06.372Z,60.80
2018-07-23T06:23:37.639Z,62.20
2018-07-23T06:26:09.037Z,61.50
2018-07-23T06:28:40.065Z,59.60
2018-07-23T06:31:10.936Z,59.70
2018-07-23T06:33:41.910Z,59.60
2018-07-23T06:36:13.029Z,60.80
2018-07-23T06:38:44.109Z,58.90
2018-07-23T06:41:15.053Z,56.90
2018-07-23T06:43:45.968Z,57.90
2018-07-23T06:46:16.992Z,58.00
2018-07-23T06:48:47.835Z,57.60
2018-07-23T06:51:18.977Z,58.00
2018-07-23T06:53:49.868Z,56.40
2018-07-23T06:58:51.252Z,57.60
2018-07-23T07:01:22.430Z,56.30
2018-07-23T07:03:53.456Z,56.60
2018-07-23T07:06:24.601Z,53.70
2018-07-23T07:08:55.851Z,55.60
2018-07-23T07:11:26.858Z,54.80
2018-07-23T07:13:57.834Z,54.10
2018-07-23T07:16:28.774Z,55.00
2018-07-23T07:18:59.713Z,55.50
2018-07-23T07:21:30.672Z,55.10
2018-07-23T07:24:01.640Z,54.30
2018-07-23T07:26:32.450Z,52.90
2018-07-23T07:29:03.425Z,53.40
2018-07-23T07:31:34.408Z,53.90
2018-07-23T07:34:05.377Z,51.40
2018-07-23T07:36:36.445Z,52.20
2018-07-23T07:39:11.927Z,52.70
2018-07-23T07:41:43.141Z,51.00
2018-07-23T07:44:14.251Z,52.70
2018-07-23T07:46:45.150Z,50.40
2018-07-23T07:49:16.112Z,50.00
2018-07-23T07:51:46.977Z,50.80
2018-07-23T07:54:18.052Z,49.50
2018-07-23T07:56:48.968Z,50.20
2018-07-23T07:59:19.970Z,49.50
2018-07-23T08:01:50.963Z,50.30
2018-07-23T08:04:21.984Z,50.20
2018-07-23T08:06:52.847Z,51.30
2018-07-23T08:09:23.831Z,49.70
2018-07-23T08:11:54.819Z,49.00
2018-07-23T08:14:25.775Z,48.70
2018-07-23T08:16:56.773Z,50.50
2018-07-23T08:21:58.315Z,49.00
2018-07-23T08:24:29.369Z,47.70
2018-07-23T08:27:00.449Z,48.50
2018-07-23T08:29:32.223Z,47.50
2018-07-23T08:32:03.565Z,46.70
2018-07-23T08:34:34.486Z,47.30
2018-07-23T08:37:05.579Z,47.30
2018-07-23T08:39:36.637Z,48.20
2018-07-23T08:42:07.695Z,47.10
2018-07-23T08:44:38.840Z,47.60
2018-07-23T08:47:09.912Z,46.00
2018-07-23T08:49:41.013Z,48.20
2018-07-23T08:52:11.973Z,46.30
2018-07-23T08:54:43.134Z,49.30
2018-07-23T08:57:14.015Z,48.20
2018-07-23T08:59:45.311Z,46.50
2018-07-23T09:02:16.446Z,46.40
2018-07-23T09:04:47.484Z,49.00
2018-07-23T09:07:18.601Z,47.80
2018-07-23T09:09:49.749Z,46.10
2018-07-23T09:12:20.813Z,48.10
2018-07-23T09:14:51.871Z,45.90
2018-07-23T09:17:23.038Z,47.10
2018-07-23T09:19:54.267Z,45.10
2018-07-23T09:22:25.506Z,46.60
2018-07-23T09:24:56.620Z,46.00
2018-07-23T09:27:27.589Z,45.40
2018-07-23T09:29:58.471Z,44.60
2018-07-23T09:32:29.449Z,43.10
2018-07-23T09:35:00.347Z,44.20
2018-07-23T09:37:31.248Z,44.70
2018-07-23T09:40:02.337Z,45.90
2018-07-23T09:42:33.318Z,47.40
2018-07-23T09:45:04.329Z,47.50
2018-07-23T09:47:35.158Z,47.70
2018-07-23T09:50:06.222Z,48.00
2018-07-23T09:55:07.680Z,49.80
2018-07-23T09:57:38.511Z,50.10
2018-07-23T10:00:09.415Z,50.80
2018-07-23T10:02:40.354Z,50.40
2018-07-23T10:05:11.405Z,50.30
2018-07-23T10:07:42.268Z,51.10
2018-07-23T10:10:13.223Z,52.10
2018-07-23T10:12:44.145Z,55.80
2018-07-23T10:15:15.268Z,51.90
2018-07-23T10:17:46.166Z,54.20
2018-07-23T10:20:17.167Z,55.10
2018-07-23T10:22:48.086Z,56.50
2018-07-23T10:25:19.080Z,56.30
2018-07-23T10:27:50.061Z,56.70
2018-07-23T10:30:21.034Z,57.90
2018-07-23T10:32:51.997Z,58.50
2018-07-23T10:35:23.104Z,58.30
2018-07-23T10:37:54.057Z,58.40
2018-07-23T10:40:25.610Z,58.70
2018-07-23T10:42:56.831Z,60.80
2018-07-23T10:45:27.843Z,63.50
2018-07-23T10:47:58.804Z,66.00
2018-07-23T10:50:29.795Z,68.60
2018-07-23T10:53:00.680Z,70.50
2018-07-23T10:55:31.533Z,70.60
2018-07-23T10:58:02.338Z,69.40
2018-07-23T11:00:33.230Z,70.60
2018-07-23T11:03:04.086Z,70.60
2018-07-23T11:05:35.052Z,69.90
2018-07-23T11:08:06.077Z,67.10
2018-07-23T11:10:37.047Z,69.80
2018-07-23T11:13:08.493Z,70.00
2018-07-23T11:15:39.518Z,72.30
2018-07-23T11:18:10.855Z,73.30
2018-07-23T11:20:41.957Z,78.40
2018-07-23T11:23:12.736Z,76.90
2018-07-23T11:25:43.855Z,74.60
2018-07-23T11:28:14.986Z,77.70
2018-07-23T11:30:46.054Z,72.20
2018-07-23T11:33:17.245Z,75.50
2018-07-23T11:35:48.439Z,76.20
2018-07-23T11:38:19.459Z,73.90
2018-07-23T11:40:50.686Z,75.20
2018-07-23T11:43:22.121Z,75.10
2018-07-23T11:45:53.177Z,77.30
2018-07-23T11:48:24.343Z,75.90
2018-07-23T11:53:25.985Z,73.10
2018-07-23T11:55:57.664Z,72.60
2018-07-23T11:58:28.776Z,74.20
2018-07-23T12:00:59.742Z,72.40
2018-07-23T17:14:30.525Z,74.50
2018-07-23T17:17:03.115Z,71.30
2018-07-23T17:19:35.440Z,69.00
2018-07-23T17:22:07.795Z,70.00
2018-07-23T17:24:39.899Z,70.80
2018-07-23T17:27:12.034Z,71.30
2018-07-23T17:29:44.039Z,70.80
2018-07-23T17:32:16.317Z,71.90
2018-07-23T17:34:48.471Z,70.70
2018-07-23T17:37:20.801Z,70.90
2018-07-23T17:42:26.619Z,70.90
2018-07-23T17:47:29.924Z,70.40
2018-07-23T17:50:02.122Z,71.40
2018-07-23T17:52:34.367Z,72.60
2018-07-23T17:55:06.992Z,73.20
2018-07-23T17:57:38.945Z,74.30
2018-07-23T18:00:11.353Z,74.30
2018-07-23T18:02:43.339Z,73.20
2018-07-23T18:05:16.924Z,73.40
2018-07-23T18:07:48.925Z,74.20
2018-07-23T18:10:20.786Z,74.60
2018-07-23T18:12:53.057Z,72.70
2018-07-23T18:15:25.247Z,72.20
2018-07-23T18:17:58.795Z,73.10
2018-07-23T18:20:31.249Z,73.10
2018-07-23T18:23:04.001Z,75.70
2018-07-23T18:25:36.324Z,76.80
2018-07-23T18:28:08.824Z,78.50
2018-07-23T18:30:40.808Z,79.70
2018-07-23T18:33:13.364Z,79.00
2018-07-23T18:35:45.535Z,79.20
2018-07-23T18:38:17.811Z,79.20
2018-07-23T18:40:49.369Z,81.60
2018-07-23T18:43:22.175Z,82.60
2018-07-23T18:45:54.445Z,83.80
2018-07-23T18:52:09.271Z,84.50
2018-07-23T18:54:42.858Z,84.60
2018-07-23T18:57:16.377Z,85.50
2018-07-23T19:04:54.113Z,86.90
2018-07-23T19:07:26.501Z,85.70
2018-07-23T19:09:59.081Z,85.90
2018-07-23T19:12:30.876Z,86.30
2018-07-23T19:15:03.443Z,86.40
2018-07-23T19:17:36.441Z,85.90
2018-07-23T19:20:08.614Z,86.50
2018-07-23T19:22:42.676Z,86.90
2018-07-23T19:27:49.133Z,87.50
2018-07-23T19:30:23.184Z,87.60
2018-07-23T19:35:30.288Z,87.20
2018-07-23T19:38:03.652Z,87.80
2018-07-23T19:40:37.252Z,88.50
2018-07-23T19:43:10.897Z,88.70
2018-07-23T19:45:44.295Z,88.80
2018-07-23T19:48:16.958Z,88.70
2018-07-23T19:50:50.686Z,89.20
2018-07-23T19:55:57.359Z,89.80
2018-07-23T20:01:02.941Z,90.00
2018-07-23T20:03:36.569Z,90.00
2018-07-23T20:06:10.053Z,89.60
2018-07-23T20:08:43.539Z,90.00
2018-07-23T20:11:16.774Z,89.30
2018-07-23T20:18:55.364Z,89.30
2018-07-23T20:21:29.227Z,89.80
2018-07-23T20:24:02.650Z,89.20
2018-07-23T20:26:36.438Z,89.20
2018-07-23T20:29:10.182Z,89.00
2018-07-23T20:31:44.332Z,89.20
2018-07-23T20:34:17.934Z,89.10
2018-07-23T20:36:52.588Z,89.20
2018-07-23T20:39:26.064Z,89.70
2018-07-23T20:41:59.688Z,89.80
2018-07-23T20:44:33.072Z,89.90
2018-07-23T20:47:06.245Z,89.80
2018-07-23T20:49:39.341Z,89.70
2018-07-23T20:52:12.603Z,89.80
2018-07-23T20:54:51.421Z,90.00
2018-07-23T21:05:01.980Z,89.60
2018-07-23T21:07:34.920Z,89.30
2018-07-23T21:10:08.204Z,89.10
2018-07-23T21:12:41.413Z,89.00
2018-07-23T21:15:14.750Z,88.70
2018-07-23T21:17:47.031Z,88.60
2018-07-23T21:22:52.016Z,88.30
2018-07-23T21:25:24.477Z,88.60
2018-07-23T21:27:56.652Z,88.70
2018-07-23T21:33:00.877Z,88.50
2018-07-23T21:35:32.889Z,88.80
2018-07-23T21:38:04.702Z,88.60
2018-07-23T21:43:08.478Z,88.50
2018-07-23T21:45:40.510Z,88.40
2018-07-23T21:48:12.515Z,88.20
2018-07-23T21:50:44.590Z,88.70
2018-07-23T21:53:16.587Z,89.10
2018-07-23T21:55:48.890Z,89.50
2018-07-23T21:58:20.944Z,89.60
2018-07-23T22:00:52.987Z,89.70
2018-07-23T22:03:24.682Z,89.70
2018-07-23T22:08:27.746Z,89.80
2018-07-23T22:11:00.011Z,88.90
2018-07-23T22:16:03.526Z,88.60
2018-07-23T22:18:35.412Z,89.10
2018-07-23T22:21:07.272Z,89.30
2018-07-23T22:23:39.470Z,89.70
2018-07-23T22:26:11.195Z,89.50
2018-07-23T22:28:44.276Z,90.00
2018-07-23T22:31:16.325Z,90.10
2018-07-23T22:33:48.490Z,90.10
2018-07-23T22:36:20.741Z,90.20
2018-07-23T22:38:53.019Z,90.50
2018-07-23T22:41:25.881Z,90.70
2018-07-23T22:43:58.131Z,90.80
2018-07-23T22:46:30.362Z,90.90
2018-07-23T22:49:02.615Z,90.80
2018-07-23T22:51:35.077Z,90.80
2018-07-23T22:54:07.494Z,90.70
2018-07-23T22:59:10.616Z,90.50
2018-07-23T23:01:43.608Z,90.40
2018-07-23T23:04:15.213Z,90.40
2018-07-23T23:06:47.296Z,90.30
2018-07-23T23:09:18.900Z,90.10
2018-07-23T23:11:51.025Z,89.60
2018-07-23T23:14:22.951Z,89.20
2018-07-23T23:16:54.959Z,89.10
2018-07-23T23:19:27.261Z,89.10
2018-07-23T23:22:00.221Z,89.00
2018-07-23T23:24:32.541Z,89.10
2018-07-23T23:27:04.970Z,89.20
2018-07-23T23:29:36.676Z,89.20
2018-07-23T23:34:39.661Z,88.90
2018-07-23T23:37:11.447Z,88.60
2018-07-23T23:39:43.235Z,88.90
2018-07-23T23:42:15.491Z,89.00
2018-07-23T23:44:47.393Z,88.80
2018-07-23T23:47:19.225Z,88.90
2018-07-23T23:49:51.178Z,88.80
2018-07-23T23:54:55.432Z,89.00
2018-07-23T23:57:27.460Z,89.10
2018-07-23T23:59:59.437Z,89.20
